sensor_id;sensor_type;location;lat;lon;timestamp;temperature;humidity
71096;DHT22;58753;49.440;11.126;2023-05-02T00:00:07;7.10;88.73
71096;DHT22;58753;49.440;11.126;2023-05-02T00:02:33;7.01;88.40
71096;DHT22;58753;49.440;11.126;2023-05-02T00:04:59;6.99;88.87
71096;DHT22;58753;49.440;11.126;2023-05-02T00:07:24;6.96;88.90
71096;DHT22;58753;49.440;11.126;2023-05-02T00:09:51;6.95;88.99
71096;DHT22;58753;49.440;11.126;2023-05-02T00:12:16;6.92;88.80
71096;DHT22;58753;49.440;11.126;2023-05-02T00:14:42;6.87;88.96
71096;DHT22;58753;49.440;11.126;2023-05-02T00:17:07;6.87;88.98
71096;DHT22;58753;49.440;11.126;2023-05-02T00:19:37;6.82;88.84
71096;DHT22;58753;49.440;11.126;2023-05-02T00:22:04;6.76;88.87
71096;DHT22;58753;49.440;11.126;2023-05-02T00:24:29;6.72;88.98
71096;DHT22;58753;49.440;11.126;2023-05-02T00:26:54;6.68;89.10
71096;DHT22;58753;49.440;11.126;2023-05-02T00:29:20;6.66;88.98
71096;DHT22;58753;49.440;11.126;2023-05-02T00:31:46;6.65;89.08
71096;DHT22;58753;49.440;11.126;2023-05-02T00:34:11;6.61;89.11
71096;DHT22;58753;49.440;11.126;2023-05-02T00:36:36;6.59;89.27
71096;DHT22;58753;49.440;11.126;2023-05-02T00:39:02;6.56;89.30
71096;DHT22;58753;49.440;11.126;2023-05-02T00:41:28;6.55;89.32
71096;DHT22;58753;49.440;11.126;2023-05-02T00:43:53;6.49;89.21
71096;DHT22;58753;49.440;11.126;2023-05-02T00:46:19;6.48;89.34
71096;DHT22;58753;49.440;11.126;2023-05-02T00:48:44;6.44;89.37
71096;DHT22;58753;49.440;11.126;2023-05-02T00:51:10;6.44;89.66
71096;DHT22;58753;49.440;11.126;2023-05-02T00:53:38;6.46;89.52
71096;DHT22;58753;49.440;11.126;2023-05-02T00:56:04;6.48;89.60
71096;DHT22;58753;49.440;11.126;2023-05-02T00:58:30;6.45;89.59
71096;DHT22;58753;49.440;11.126;2023-05-02T01:09:31;6.35;89.81
71096;DHT22;58753;49.440;11.126;2023-05-02T01:12:00;6.36;89.76
71096;DHT22;58753;49.440;11.126;2023-05-02T01:14:50;6.35;89.71
71096;DHT22;58753;49.440;11.126;2023-05-02T01:17:18;6.28;89.66
71096;DHT22;58753;49.440;11.126;2023-05-02T01:19:58;6.25;89.72
71096;DHT22;58753;49.440;11.126;2023-05-02T01:22:27;6.26;89.99
71096;DHT22;58753;49.440;11.126;2023-05-02T01:30:42;6.24;89.90
71096;DHT22;58753;49.440;11.126;2023-05-02T01:33:10;6.18;89.74
71096;DHT22;58753;49.440;11.126;2023-05-02T01:35:36;6.17;89.81
71096;DHT22;58753;49.440;11.126;2023-05-02T01:38:03;6.11;89.62
71096;DHT22;58753;49.440;11.126;2023-05-02T01:40:31;6.07;89.57
71096;DHT22;58753;49.440;11.126;2023-05-02T01:42:58;6.01;89.66
71096;DHT22;58753;49.440;11.126;2023-05-02T01:45:26;5.98;89.90
71096;DHT22;58753;49.440;11.126;2023-05-02T01:47:53;5.98;89.65
71096;DHT22;58753;49.440;11.126;2023-05-02T01:50:21;5.94;89.89
71096;DHT22;58753;49.440;11.126;2023-05-02T01:52:50;5.90;89.73
71096;DHT22;58753;49.440;11.126;2023-05-02T01:55:17;5.91;89.84
71096;DHT22;58753;49.440;11.126;2023-05-02T01:57:43;5.87;89.80
71096;DHT22;58753;49.440;11.126;2023-05-02T02:00:11;5.89;90.01
71096;DHT22;58753;49.440;11.126;2023-05-02T02:02:38;5.87;89.98
71096;DHT22;58753;49.440;11.126;2023-05-02T02:05:06;5.89;90.13
71096;DHT22;58753;49.440;11.126;2023-05-02T02:07:32;5.87;89.91
71096;DHT22;58753;49.440;11.126;2023-05-02T02:09:58;5.87;90.10
71096;DHT22;58753;49.440;11.126;2023-05-02T02:12:30;5.83;90.10
71096;DHT22;58753;49.440;11.126;2023-05-02T02:15:02;5.80;90.01
71096;DHT22;58753;49.440;11.126;2023-05-02T02:17:39;5.78;90.16
71096;DHT22;58753;49.440;11.126;2023-05-02T02:20:08;5.80;90.17
71096;DHT22;58753;49.440;11.126;2023-05-02T02:22:37;5.80;90.32
71096;DHT22;58753;49.440;11.126;2023-05-02T02:25:05;5.81;90.34
71096;DHT22;58753;49.440;11.126;2023-05-02T02:27:32;5.80;90.46
71096;DHT22;58753;49.440;11.126;2023-05-02T02:29:57;5.83;90.34
71096;DHT22;58753;49.440;11.126;2023-05-02T02:32:23;5.78;90.45
71096;DHT22;58753;49.440;11.126;2023-05-02T02:34:49;5.78;90.39
71096;DHT22;58753;49.440;11.126;2023-05-02T02:37:30;5.75;90.29
71096;DHT22;58753;49.440;11.126;2023-05-02T02:40:20;5.75;90.45
71096;DHT22;58753;49.440;11.126;2023-05-02T02:42:50;5.71;90.65
71096;DHT22;58753;49.440;11.126;2023-05-02T02:45:37;5.71;90.43
71096;DHT22;58753;49.440;11.126;2023-05-02T02:48:25;5.70;90.53
71096;DHT22;58753;49.440;11.126;2023-05-02T02:56:41;5.61;90.32
71096;DHT22;58753;49.440;11.126;2023-05-02T02:59:26;5.63;90.38
71096;DHT22;58753;49.440;11.126;2023-05-02T03:02:01;5.56;90.25
71096;DHT22;58753;49.440;11.126;2023-05-02T03:04:30;5.50;90.29
71096;DHT22;58753;49.440;11.126;2023-05-02T03:06:56;5.51;90.76
71096;DHT22;58753;49.440;11.126;2023-05-02T03:09:21;5.53;90.66
71096;DHT22;58753;49.440;11.126;2023-05-02T03:11:47;5.50;90.55
71096;DHT22;58753;49.440;11.126;2023-05-02T03:14:12;5.53;90.58
71096;DHT22;58753;49.440;11.126;2023-05-02T03:16:39;5.49;90.59
71096;DHT22;58753;49.440;11.126;2023-05-02T03:19:05;5.47;90.82
71096;DHT22;58753;49.440;11.126;2023-05-02T03:21:32;5.50;90.87
71096;DHT22;58753;49.440;11.126;2023-05-02T03:24:01;5.50;90.77
71096;DHT22;58753;49.440;11.126;2023-05-02T03:26:28;5.50;90.94
71096;DHT22;58753;49.440;11.126;2023-05-02T03:28:54;5.51;90.82
71096;DHT22;58753;49.440;11.126;2023-05-02T03:31:20;5.49;90.66
71096;DHT22;58753;49.440;11.126;2023-05-02T03:33:46;5.43;90.58
71096;DHT22;58753;49.440;11.126;2023-05-02T03:36:11;5.43;90.68
71096;DHT22;58753;49.440;11.126;2023-05-02T03:38:37;5.42;90.79
71096;DHT22;58753;49.440;11.126;2023-05-02T03:41:02;5.40;90.76
71096;DHT22;58753;49.440;11.126;2023-05-02T03:43:29;5.35;90.62
71096;DHT22;58753;49.440;11.126;2023-05-02T03:45:54;5.35;90.68
71096;DHT22;58753;49.440;11.126;2023-05-02T03:48:20;5.33;90.79
71096;DHT22;58753;49.440;11.126;2023-05-02T03:50:46;5.36;90.96
71096;DHT22;58753;49.440;11.126;2023-05-02T03:53:11;5.40;91.00
71096;DHT22;58753;49.440;11.126;2023-05-02T03:55:40;5.42;90.91
71096;DHT22;58753;49.440;11.126;2023-05-02T03:58:06;5.44;90.88
71096;DHT22;58753;49.440;11.126;2023-05-02T04:00:32;5.42;90.72
71096;DHT22;58753;49.440;11.126;2023-05-02T04:03:00;5.42;90.84
71096;DHT22;58753;49.440;11.126;2023-05-02T04:05:25;5.42;90.65
71096;DHT22;58753;49.440;11.126;2023-05-02T04:07:51;5.42;90.73
71096;DHT22;58753;49.440;11.126;2023-05-02T04:10:16;5.42;90.85
71096;DHT22;58753;49.440;11.126;2023-05-02T04:12:42;5.44;90.96
71096;DHT22;58753;49.440;11.126;2023-05-02T04:15:09;5.46;90.89
71096;DHT22;58753;49.440;11.126;2023-05-02T04:17:34;5.51;91.06
71096;DHT22;58753;49.440;11.126;2023-05-02T04:20:00;5.60;91.22
71096;DHT22;58753;49.440;11.126;2023-05-02T04:22:25;5.64;91.03
71096;DHT22;58753;49.440;11.126;2023-05-02T04:24:52;5.69;91.18
71096;DHT22;58753;49.440;11.126;2023-05-02T04:27:17;5.74;91.08
71096;DHT22;58753;49.440;11.126;2023-05-02T04:29:43;5.80;91.06
71096;DHT22;58753;49.440;11.126;2023-05-02T04:32:08;5.84;90.98
71096;DHT22;58753;49.440;11.126;2023-05-02T04:34:34;5.89;90.83
71096;DHT22;58753;49.440;11.126;2023-05-02T04:37:00;5.91;90.79
71096;DHT22;58753;49.440;11.126;2023-05-02T04:39:25;5.98;91.12
71096;DHT22;58753;49.440;11.126;2023-05-02T04:41:51;6.02;91.03
71096;DHT22;58753;49.440;11.126;2023-05-02T04:44:16;6.10;90.97
71096;DHT22;58753;49.440;11.126;2023-05-02T04:46:42;6.17;90.92
71096;DHT22;58753;49.440;11.126;2023-05-02T04:49:07;6.22;90.93
71096;DHT22;58753;49.440;11.126;2023-05-02T04:51:34;6.31;90.98
71096;DHT22;58753;49.440;11.126;2023-05-02T04:53:59;6.39;91.07
71096;DHT22;58753;49.440;11.126;2023-05-02T04:56:25;6.46;90.97
71096;DHT22;58753;49.440;11.126;2023-05-02T04:58:51;6.52;90.92
71096;DHT22;58753;49.440;11.126;2023-05-02T05:01:16;6.56;90.58
71096;DHT22;58753;49.440;11.126;2023-05-02T05:03:42;6.62;90.69
71096;DHT22;58753;49.440;11.126;2023-05-02T05:06:07;6.63;90.84
71096;DHT22;58753;49.440;11.126;2023-05-02T05:08:33;6.71;90.74
71096;DHT22;58753;49.440;11.126;2023-05-02T05:10:58;6.76;90.68
71096;DHT22;58753;49.440;11.126;2023-05-02T05:13:24;6.83;90.75
71096;DHT22;58753;49.440;11.126;2023-05-02T05:15:49;6.89;90.79
71096;DHT22;58753;49.440;11.126;2023-05-02T05:18:15;6.97;90.89
71096;DHT22;58753;49.440;11.126;2023-05-02T05:20:40;7.04;90.66
71096;DHT22;58753;49.440;11.126;2023-05-02T05:23:06;7.08;90.47
71096;DHT22;58753;49.440;11.126;2023-05-02T05:25:31;7.14;90.42
71096;DHT22;58753;49.440;11.126;2023-05-02T05:28:01;7.16;90.59
71096;DHT22;58753;49.440;11.126;2023-05-02T05:30:26;7.28;90.80
71096;DHT22;58753;49.440;11.126;2023-05-02T05:32:52;7.37;90.85
71096;DHT22;58753;49.440;11.126;2023-05-02T05:35:17;7.44;90.82
71096;DHT22;58753;49.440;11.126;2023-05-02T05:37:43;7.55;90.73
71096;DHT22;58753;49.440;11.126;2023-05-02T05:40:09;7.62;90.73
71096;DHT22;58753;49.440;11.126;2023-05-02T05:42:34;7.74;90.79
71096;DHT22;58753;49.440;11.126;2023-05-02T05:45:00;7.83;90.73
71096;DHT22;58753;49.440;11.126;2023-05-02T05:47:25;7.93;90.71
71096;DHT22;58753;49.440;11.126;2023-05-02T05:49:52;8.05;90.62
71096;DHT22;58753;49.440;11.126;2023-05-02T05:52:18;8.10;90.51
71096;DHT22;58753;49.440;11.126;2023-05-02T05:54:43;8.16;90.33
71096;DHT22;58753;49.440;11.126;2023-05-02T05:57:09;8.23;90.32
71096;DHT22;58753;49.440;11.126;2023-05-02T05:59:34;8.30;90.02
71096;DHT22;58753;49.440;11.126;2023-05-02T06:02:00;8.30;90.00
71096;DHT22;58753;49.440;11.126;2023-05-02T06:04:26;8.32;89.79
71096;DHT22;58753;49.440;11.126;2023-05-02T06:06:51;8.32;89.67
71096;DHT22;58753;49.440;11.126;2023-05-02T06:09:18;8.37;89.86
71096;DHT22;58753;49.440;11.126;2023-05-02T06:11:43;8.43;89.74
71096;DHT22;58753;49.440;11.126;2023-05-02T06:14:09;8.37;89.62
71096;DHT22;58753;49.440;11.126;2023-05-02T06:16:35;8.44;89.84
71096;DHT22;58753;49.440;11.126;2023-05-02T06:19:00;8.52;89.88
71096;DHT22;58753;49.440;11.126;2023-05-02T06:21:26;8.56;89.61
71096;DHT22;58753;49.440;11.126;2023-05-02T06:23:51;8.57;89.43
71096;DHT22;58753;49.440;11.126;2023-05-02T06:26:17;8.60;89.49
71096;DHT22;58753;49.440;11.126;2023-05-02T06:28:42;8.64;89.65
71096;DHT22;58753;49.440;11.126;2023-05-02T06:31:08;8.68;89.52
71096;DHT22;58753;49.440;11.126;2023-05-02T06:33:35;8.74;89.61
71096;DHT22;58753;49.440;11.126;2023-05-02T06:36:01;8.78;89.58
71096;DHT22;58753;49.440;11.126;2023-05-02T06:38:26;8.83;89.47
71096;DHT22;58753;49.440;11.126;2023-05-02T06:40:52;8.85;89.27
71096;DHT22;58753;49.440;11.126;2023-05-02T06:43:18;8.85;89.17
71096;DHT22;58753;49.440;11.126;2023-05-02T06:45:43;8.87;89.30
71096;DHT22;58753;49.440;11.126;2023-05-02T06:48:10;8.91;89.37
71096;DHT22;58753;49.440;11.126;2023-05-02T06:50:35;8.97;89.51
71096;DHT22;58753;49.440;11.126;2023-05-02T06:53:02;9.03;89.39
71096;DHT22;58753;49.440;11.126;2023-05-02T06:55:28;9.08;89.33
71096;DHT22;58753;49.440;11.126;2023-05-02T06:57:54;9.12;89.21
71096;DHT22;58753;49.440;11.126;2023-05-02T07:00:20;9.18;89.37
71096;DHT22;58753;49.440;11.126;2023-05-02T07:02:47;9.21;89.27
71096;DHT22;58753;49.440;11.126;2023-05-02T07:05:13;9.25;89.29
71096;DHT22;58753;49.440;11.126;2023-05-02T07:07:43;9.31;89.21
71096;DHT22;58753;49.440;11.126;2023-05-02T07:10:09;9.32;88.97
71096;DHT22;58753;49.440;11.126;2023-05-02T07:12:35;9.29;88.93
71096;DHT22;58753;49.440;11.126;2023-05-02T07:15:01;9.29;88.76
71096;DHT22;58753;49.440;11.126;2023-05-02T07:17:26;9.28;88.87
71096;DHT22;58753;49.440;11.126;2023-05-02T07:19:52;9.29;88.85
71096;DHT22;58753;49.440;11.126;2023-05-02T07:22:18;9.31;88.75
71096;DHT22;58753;49.440;11.126;2023-05-02T07:24:43;9.35;88.87
71096;DHT22;58753;49.440;11.126;2023-05-02T07:27:09;9.35;88.88
71096;DHT22;58753;49.440;11.126;2023-05-02T07:29:35;9.42;88.98
71096;DHT22;58753;49.440;11.126;2023-05-02T07:32:01;9.48;88.87
71096;DHT22;58753;49.440;11.126;2023-05-02T07:34:27;9.52;88.76
71096;DHT22;58753;49.440;11.126;2023-05-02T07:36:52;9.63;88.94
71096;DHT22;58753;49.440;11.126;2023-05-02T07:39:18;9.69;88.94
71096;DHT22;58753;49.440;11.126;2023-05-02T07:41:44;9.80;88.93
71096;DHT22;58753;49.440;11.126;2023-05-02T07:44:10;9.87;88.65
71096;DHT22;58753;49.440;11.126;2023-05-02T07:46:35;9.97;88.76
71096;DHT22;58753;49.440;11.126;2023-05-02T07:49:01;10.02;88.50
71096;DHT22;58753;49.440;11.126;2023-05-02T07:51:26;10.12;88.58
71096;DHT22;58753;49.440;11.126;2023-05-02T07:53:52;10.21;88.43
71096;DHT22;58753;49.440;11.126;2023-05-02T07:56:19;10.27;88.11
71096;DHT22;58753;49.440;11.126;2023-05-02T07:58:45;10.30;87.71
71096;DHT22;58753;49.440;11.126;2023-05-02T08:01:10;10.38;87.85
71096;DHT22;58753;49.440;11.126;2023-05-02T08:03:36;10.45;87.65
71096;DHT22;58753;49.440;11.126;2023-05-02T08:06:01;10.51;87.06
71096;DHT22;58753;49.440;11.126;2023-05-02T08:08:28;10.45;86.16
71096;DHT22;58753;49.440;11.126;2023-05-02T08:10:53;10.44;86.21
71096;DHT22;58753;49.440;11.126;2023-05-02T08:13:18;10.43;86.16
71096;DHT22;58753;49.440;11.126;2023-05-02T08:15:44;10.36;86.06
71096;DHT22;58753;49.440;11.126;2023-05-02T08:18:10;10.34;85.86
71096;DHT22;58753;49.440;11.126;2023-05-02T08:20:35;10.23;85.66
71096;DHT22;58753;49.440;11.126;2023-05-02T08:23:01;10.13;85.72
71096;DHT22;58753;49.440;11.126;2023-05-02T08:25:26;10.06;86.08
71096;DHT22;58753;49.440;11.126;2023-05-02T08:27:52;10.00;86.34
71096;DHT22;58753;49.440;11.126;2023-05-02T08:30:17;9.99;86.42
71096;DHT22;58753;49.440;11.126;2023-05-02T08:32:44;9.94;86.48
71096;DHT22;58753;49.440;11.126;2023-05-02T08:35:09;9.90;86.67
71096;DHT22;58753;49.440;11.126;2023-05-02T08:37:35;9.89;86.92
71096;DHT22;58753;49.440;11.126;2023-05-02T08:40:01;9.96;87.40
71096;DHT22;58753;49.440;11.126;2023-05-02T08:42:28;10.07;87.64
71096;DHT22;58753;49.440;11.126;2023-05-02T08:44:57;10.16;87.74
71096;DHT22;58753;49.440;11.126;2023-05-02T08:47:24;10.23;87.51
71096;DHT22;58753;49.440;11.126;2023-05-02T08:49:52;10.34;87.78
71096;DHT22;58753;49.440;11.126;2023-05-02T08:52:18;10.40;87.74
71096;DHT22;58753;49.440;11.126;2023-05-02T08:54:44;10.50;87.90
71096;DHT22;58753;49.440;11.126;2023-05-02T08:57:10;10.57;87.78
71096;DHT22;58753;49.440;11.126;2023-05-02T08:59:35;10.61;87.57
71096;DHT22;58753;49.440;11.126;2023-05-02T09:02:11;10.64;87.28
71096;DHT22;58753;49.440;11.126;2023-05-02T09:04:43;10.67;87.56
71096;DHT22;58753;49.440;11.126;2023-05-02T09:07:09;10.65;86.99
71096;DHT22;58753;49.440;11.126;2023-05-02T09:09:35;10.67;87.29
71096;DHT22;58753;49.440;11.126;2023-05-02T09:12:02;10.74;87.62
71096;DHT22;58753;49.440;11.126;2023-05-02T09:14:27;10.88;87.95
71096;DHT22;58753;49.440;11.126;2023-05-02T09:16:58;11.05;87.55
71096;DHT22;58753;49.440;11.126;2023-05-02T09:19:25;11.16;87.12
71096;DHT22;58753;49.440;11.126;2023-05-02T09:21:51;11.28;87.17
71096;DHT22;58753;49.440;11.126;2023-05-02T09:24:18;11.35;86.73
71096;DHT22;58753;49.440;11.126;2023-05-02T09:26:57;11.39;86.41
71096;DHT22;58753;49.440;11.126;2023-05-02T09:29:23;11.46;85.29
71096;DHT22;58753;49.440;11.126;2023-05-02T09:31:48;11.63;85.47
71096;DHT22;58753;49.440;11.126;2023-05-02T09:34:17;11.79;84.81
71096;DHT22;58753;49.440;11.126;2023-05-02T09:36:47;11.80;83.65
71096;DHT22;58753;49.440;11.126;2023-05-02T09:39:21;11.84;84.09
71096;DHT22;58753;49.440;11.126;2023-05-02T09:41:47;11.91;83.93
71096;DHT22;58753;49.440;11.126;2023-05-02T09:44:14;12.13;84.20
71096;DHT22;58753;49.440;11.126;2023-05-02T09:46:51;12.37;84.06
71096;DHT22;58753;49.440;11.126;2023-05-02T09:49:17;12.56;83.72
71096;DHT22;58753;49.440;11.126;2023-05-02T09:51:44;12.78;83.30
71096;DHT22;58753;49.440;11.126;2023-05-02T09:54:11;13.05;82.74
71096;DHT22;58753;49.440;11.126;2023-05-02T09:56:55;13.36;81.80
71096;DHT22;58753;49.440;11.126;2023-05-02T09:59:22;13.77;81.72
71096;DHT22;58753;49.440;11.126;2023-05-02T10:01:55;14.00;80.08
71096;DHT22;58753;49.440;11.126;2023-05-02T10:04:21;14.29;79.60
71096;DHT22;58753;49.440;11.126;2023-05-02T10:06:48;14.45;78.61
71096;DHT22;58753;49.440;11.126;2023-05-02T10:09:15;14.53;77.19
71096;DHT22;58753;49.440;11.126;2023-05-02T10:11:41;14.48;76.15
71096;DHT22;58753;49.440;11.126;2023-05-02T10:14:08;14.48;76.72
71096;DHT22;58753;49.440;11.126;2023-05-02T10:16:38;14.52;76.44
71096;DHT22;58753;49.440;11.126;2023-05-02T10:19:08;14.46;75.31
71096;DHT22;58753;49.440;11.126;2023-05-02T10:21:35;14.56;76.05
71096;DHT22;58753;49.440;11.126;2023-05-02T10:24:01;14.51;74.79
71096;DHT22;58753;49.440;11.126;2023-05-02T10:26:30;14.48;73.55
71096;DHT22;58753;49.440;11.126;2023-05-02T10:28:56;14.51;73.28
71096;DHT22;58753;49.440;11.126;2023-05-02T10:31:22;14.45;71.48
71096;DHT22;58753;49.440;11.126;2023-05-02T10:33:50;14.39;71.67
71096;DHT22;58753;49.440;11.126;2023-05-02T10:36:21;14.49;72.35
71096;DHT22;58753;49.440;11.126;2023-05-02T10:38:47;14.68;72.29
71096;DHT22;58753;49.440;11.126;2023-05-02T10:41:14;14.93;72.35
71096;DHT22;58753;49.440;11.126;2023-05-02T10:43:40;15.17;69.07
71096;DHT22;58753;49.440;11.126;2023-05-02T10:46:32;15.20;69.32
71096;DHT22;58753;49.440;11.126;2023-05-02T10:49:09;15.07;69.42
71096;DHT22;58753;49.440;11.126;2023-05-02T10:51:36;15.24;69.94
71096;DHT22;58753;49.440;11.126;2023-05-02T10:54:24;15.64;70.21
71096;DHT22;58753;49.440;11.126;2023-05-02T10:59:28;16.69;67.37
71096;DHT22;58753;49.440;11.126;2023-05-02T11:01:54;17.10;65.63
71096;DHT22;58753;49.440;11.126;2023-05-02T11:04:19;17.66;65.31
71096;DHT22;58753;49.440;11.126;2023-05-02T11:11:51;18.29;57.60
71096;DHT22;58753;49.440;11.126;2023-05-02T11:24:47;19.74;55.64
71096;DHT22;58753;49.440;11.126;2023-05-02T11:38:09;18.81;50.77
71096;DHT22;58753;49.440;11.126;2023-05-02T11:40:35;18.80;51.98
71096;DHT22;58753;49.440;11.126;2023-05-02T11:43:11;18.95;50.86
71096;DHT22;58753;49.440;11.126;2023-05-02T11:45:37;19.21;51.29
71096;DHT22;58753;49.440;11.126;2023-05-02T11:48:07;18.84;49.89
71096;DHT22;58753;49.440;11.126;2023-05-02T11:50:40;18.48;50.62
71096;DHT22;58753;49.440;11.126;2023-05-02T11:53:09;18.54;52.10
71096;DHT22;58753;49.440;11.126;2023-05-02T11:55:36;18.70;51.30
71096;DHT22;58753;49.440;11.126;2023-05-02T11:58:01;19.18;53.53
71096;DHT22;58753;49.440;11.126;2023-05-02T12:00:27;18.64;50.83
71096;DHT22;58753;49.440;11.126;2023-05-02T12:02:52;18.25;51.44
71096;DHT22;58753;49.440;11.126;2023-05-02T12:05:27;17.89;51.92
71096;DHT22;58753;49.440;11.126;2023-05-02T12:07:55;17.65;51.40
71096;DHT22;58753;49.440;11.126;2023-05-02T12:10:21;17.42;51.24
71096;DHT22;58753;49.440;11.126;2023-05-02T12:12:46;17.25;51.73
71096;DHT22;58753;49.440;11.126;2023-05-02T12:15:12;17.15;51.87
71096;DHT22;58753;49.440;11.126;2023-05-02T12:17:40;16.95;52.18
71096;DHT22;58753;49.440;11.126;2023-05-02T12:20:07;16.77;52.85
71096;DHT22;58753;49.440;11.126;2023-05-02T12:22:33;16.71;53.63
71096;DHT22;58753;49.440;11.126;2023-05-02T12:24:59;16.69;54.16
71096;DHT22;58753;49.440;11.126;2023-05-02T12:27:25;16.70;54.59
71096;DHT22;58753;49.440;11.126;2023-05-02T12:29:52;16.85;55.23
71096;DHT22;58753;49.440;11.126;2023-05-02T12:32:30;17.22;55.82
71096;DHT22;58753;49.440;11.126;2023-05-02T12:34:57;17.90;56.45
71096;DHT22;58753;49.440;11.126;2023-05-02T12:37:24;18.22;54.55
71096;DHT22;58753;49.440;11.126;2023-05-02T12:39:49;19.01;54.34
71096;DHT22;58753;49.440;11.126;2023-05-02T12:42:17;19.51;53.12
71096;DHT22;58753;49.440;11.126;2023-05-02T12:44:45;19.92;51.93
71096;DHT22;58753;49.440;11.126;2023-05-02T12:47:12;19.49;48.33
71096;DHT22;58753;49.440;11.126;2023-05-02T12:49:54;19.08;48.60
71096;DHT22;58753;49.440;11.126;2023-05-02T12:52:50;18.27;45.82
71096;DHT22;58753;49.440;11.126;2023-05-02T12:55:23;17.76;46.91
71096;DHT22;58753;49.440;11.126;2023-05-02T12:57:50;17.42;47.12
71096;DHT22;58753;49.440;11.126;2023-05-02T13:00:16;17.14;47.73
71096;DHT22;58753;49.440;11.126;2023-05-02T13:02:42;16.84;48.97
71096;DHT22;58753;49.440;11.126;2023-05-02T13:05:17;16.49;50.31
71096;DHT22;58753;49.440;11.126;2023-05-02T13:07:43;16.29;51.79
71096;DHT22;58753;49.440;11.126;2023-05-02T13:10:09;15.89;53.64
71096;DHT22;58753;49.440;11.126;2023-05-02T13:12:36;15.59;55.49
71096;DHT22;58753;49.440;11.126;2023-05-02T13:15:03;15.51;56.61
71096;DHT22;58753;49.440;11.126;2023-05-02T13:17:29;15.26;58.11
71096;DHT22;58753;49.440;11.126;2023-05-02T13:19:54;14.97;58.65
71096;DHT22;58753;49.440;11.126;2023-05-02T13:22:20;14.80;59.68
71096;DHT22;58753;49.440;11.126;2023-05-02T13:24:46;14.61;60.37
71096;DHT22;58753;49.440;11.126;2023-05-02T13:27:11;14.42;60.39
71096;DHT22;58753;49.440;11.126;2023-05-02T13:29:37;14.29;61.38
71096;DHT22;58753;49.440;11.126;2023-05-02T13:32:02;14.15;61.24
71096;DHT22;58753;49.440;11.126;2023-05-02T13:34:28;14.08;61.96
71096;DHT22;58753;49.440;11.126;2023-05-02T13:36:53;13.98;62.29
71096;DHT22;58753;49.440;11.126;2023-05-02T13:39:19;13.85;62.50
71096;DHT22;58753;49.440;11.126;2023-05-02T13:41:44;13.87;63.18
71096;DHT22;58753;49.440;11.126;2023-05-02T13:44:09;13.82;62.91
71096;DHT22;58753;49.440;11.126;2023-05-02T13:46:35;13.82;63.26
71096;DHT22;58753;49.440;11.126;2023-05-02T13:49:05;13.78;63.18
71096;DHT22;58753;49.440;11.126;2023-05-02T13:51:33;13.80;63.33
71096;DHT22;58753;49.440;11.126;2023-05-02T13:53:59;13.81;63.53
71096;DHT22;58753;49.440;11.126;2023-05-02T13:56:25;13.78;63.92
71096;DHT22;58753;49.440;11.126;2023-05-02T13:58:51;13.73;64.34
71096;DHT22;58753;49.440;11.126;2023-05-02T14:01:16;13.71;65.20
71096;DHT22;58753;49.440;11.126;2023-05-02T14:03:41;13.68;65.75
71096;DHT22;58753;49.440;11.126;2023-05-02T14:06:07;13.75;66.40
71096;DHT22;58753;49.440;11.126;2023-05-02T14:08:33;14.25;67.94
71096;DHT22;58753;49.440;11.126;2023-05-02T14:10:58;15.00;68.09
71096;DHT22;58753;49.440;11.126;2023-05-02T14:13:24;15.62;66.96
71096;DHT22;58753;49.440;11.126;2023-05-02T14:15:49;15.87;64.06
71096;DHT22;58753;49.440;11.126;2023-05-02T14:18:15;16.26;65.82
71096;DHT22;58753;49.440;11.126;2023-05-02T14:20:41;16.77;63.93
71096;DHT22;58753;49.440;11.126;2023-05-02T14:23:07;17.42;62.38
71096;DHT22;58753;49.440;11.126;2023-05-02T14:25:32;18.09;61.94
71096;DHT22;58753;49.440;11.126;2023-05-02T14:27:58;18.27;57.41
71096;DHT22;58753;49.440;11.126;2023-05-02T14:30:24;18.70;57.01
71096;DHT22;58753;49.440;11.126;2023-05-02T14:32:50;18.95;53.61
71096;DHT22;58753;49.440;11.126;2023-05-02T14:35:16;19.02;51.54
71096;DHT22;58753;49.440;11.126;2023-05-02T14:37:41;19.31;51.06
71096;DHT22;58753;49.440;11.126;2023-05-02T14:40:09;19.38;49.27
71096;DHT22;58753;49.440;11.126;2023-05-02T14:42:35;19.82;51.18
71096;DHT22;58753;49.440;11.126;2023-05-02T14:45:00;20.45;50.68
71096;DHT22;58753;49.440;11.126;2023-05-02T14:47:29;20.51;47.20
71096;DHT22;58753;49.440;11.126;2023-05-02T14:49:55;20.69;47.88
71096;DHT22;58753;49.440;11.126;2023-05-02T14:52:21;20.72;44.87
71096;DHT22;58753;49.440;11.126;2023-05-02T14:54:46;20.57;45.33
71096;DHT22;58753;49.440;11.126;2023-05-02T14:57:12;20.57;43.77
71096;DHT22;58753;49.440;11.126;2023-05-02T14:59:38;20.72;44.70
71096;DHT22;58753;49.440;11.126;2023-05-02T15:02:04;20.74;42.81
71096;DHT22;58753;49.440;11.126;2023-05-02T15:04:30;20.85;41.83
71096;DHT22;58753;49.440;11.126;2023-05-02T15:06:56;21.05;42.34
71096;DHT22;58753;49.440;11.126;2023-05-02T15:09:23;21.29;41.69
71096;DHT22;58753;49.440;11.126;2023-05-02T15:11:51;21.32;40.32
71096;DHT22;58753;49.440;11.126;2023-05-02T15:14:16;21.52;40.13
71096;DHT22;58753;49.440;11.126;2023-05-02T15:16:42;21.40;39.11
71096;DHT22;58753;49.440;11.126;2023-05-02T15:19:08;21.43;38.79
71096;DHT22;58753;49.440;11.126;2023-05-02T15:21:33;21.81;39.01
71096;DHT22;58753;49.440;11.126;2023-05-02T15:23:59;21.67;37.68
71096;DHT22;58753;49.440;11.126;2023-05-02T15:26:25;21.02;37.99
71096;DHT22;58753;49.440;11.126;2023-05-02T15:28:51;20.47;38.27
71096;DHT22;58753;49.440;11.126;2023-05-02T15:31:17;20.27;39.75
71096;DHT22;58753;49.440;11.126;2023-05-02T15:33:42;20.49;40.73
71096;DHT22;58753;49.440;11.126;2023-05-02T15:36:08;20.84;40.40
71096;DHT22;58753;49.440;11.126;2023-05-02T15:38:34;21.91;39.91
71096;DHT22;58753;49.440;11.126;2023-05-02T15:41:04;22.37;37.47
71096;DHT22;58753;49.440;11.126;2023-05-02T15:43:30;21.79;37.13
71096;DHT22;58753;49.440;11.126;2023-05-02T15:45:59;21.77;37.86
71096;DHT22;58753;49.440;11.126;2023-05-02T15:48:29;21.54;37.96
71096;DHT22;58753;49.440;11.126;2023-05-02T15:50:55;21.69;36.41
71096;DHT22;58753;49.440;11.126;2023-05-02T15:53:21;22.05;36.55
71096;DHT22;58753;49.440;11.126;2023-05-02T15:55:48;22.28;35.64
71096;DHT22;58753;49.440;11.126;2023-05-02T15:58:14;22.00;35.41
71096;DHT22;58753;49.440;11.126;2023-05-02T16:00:41;21.53;36.02
71096;DHT22;58753;49.440;11.126;2023-05-02T16:03:06;21.03;36.30
71096;DHT22;58753;49.440;11.126;2023-05-02T16:05:33;20.74;37.78
71096;DHT22;58753;49.440;11.126;2023-05-02T16:07:58;20.64;38.58
71096;DHT22;58753;49.440;11.126;2023-05-02T16:10:24;20.72;39.00